sensor_id;sensor_type;location;lat;lon;timestamp;noise_LAeq;noise_LA_min;noise_LA_max;noise_LA01;noise_LA95
18377;Laerm;9315;52.624;13.544;2023-03-14T00:01:15;58.23;39.38;76.93;;
18377;Laerm;9315;52.624;13.544;2023-03-14T00:03:43;44.04;39.48;54.02;;
18377;Laerm;9315;52.624;13.544;2023-03-14T00:06:13;54.23;39.73;72.93;;
18377;Laerm;9315;52.624;13.544;2023-03-14T00:08:42;44.49;40.24;51.39;;
18377;Laerm;9315;52.624;13.544;2023-03-14T00:11:20;44.82;40.27;54.86;;
18377;Laerm;9315;52.624;13.544;2023-03-14T00:13:52;44.31;39.46;58.92;;
18377;Laerm;9315;52.624;13.544;2023-03-14T00:16:20;51.67;40.13;68.32;;
18377;Laerm;9315;52.624;13.544;2023-03-14T00:18:47;45.13;41.29;54.95;;
18377;Laerm;9315;52.624;13.544;2023-03-14T00:21:15;44.65;39.05;56.44;;
18377;Laerm;9315;52.624;13.544;2023-03-14T00:23:42;44.62;39.50;56.71;;
18377;Laerm;9315;52.624;13.544;2023-03-14T00:26:16;53.92;39.45;70.75;;
18377;Laerm;9315;52.624;13.544;2023-03-14T00:28:44;44.71;40.16;57.25;;
18377;Laerm;9315;52.624;13.544;2023-03-14T00:31:15;54.12;40.24;73.76;;
18377;Laerm;9315;52.624;13.544;2023-03-14T00:33:44;59.62;40.39;74.04;;
18377;Laerm;9315;52.624;13.544;2023-03-14T00:36:17;62.73;40.07;82.55;;
18377;Laerm;9315;52.624;13.544;2023-03-14T00:38:47;55.42;38.53;74.88;;
18377;Laerm;9315;52.624;13.544;2023-03-14T00:41:21;44.56;38.74;55.48;;
18377;Laerm;9315;52.624;13.544;2023-03-14T00:43:50;55.47;39.63;74.53;;
18377;Laerm;9315;52.624;13.544;2023-03-14T00:46:18;45.16;41.08;59.27;;
18377;Laerm;9315;52.624;13.544;2023-03-14T00:48:46;44.43;39.24;57.11;;
18377;Laerm;9315;52.624;13.544;2023-03-14T00:51:15;58.01;40.36;76.64;;
18377;Laerm;9315;52.624;13.544;2023-03-14T00:53:42;45.57;39.87;57.94;;
18377;Laerm;9315;52.624;13.544;2023-03-14T00:56:12;51.85;40.88;66.25;;
18377;Laerm;9315;52.624;13.544;2023-03-14T00:58:40;57.26;40.78;74.57;;
18377;Laerm;9315;52.624;13.544;2023-03-14T01:01:33;45.22;38.93;59.37;;
18377;Laerm;9315;52.624;13.544;2023-03-14T01:04:00;43.86;39.85;59.41;;
18377;Laerm;9315;52.624;13.544;2023-03-14T01:06:29;47.62;39.93;64.95;;
18377;Laerm;9315;52.624;13.544;2023-03-14T01:08:58;53.09;41.47;70.60;;
18377;Laerm;9315;52.624;13.544;2023-03-14T01:11:33;45.61;40.53;60.38;;
18377;Laerm;9315;52.624;13.544;2023-03-14T01:14:03;55.48;40.38;71.68;;
18377;Laerm;9315;52.624;13.544;2023-03-14T01:16:34;45.86;40.58;54.71;;
18377;Laerm;9315;52.624;13.544;2023-03-14T01:19:03;58.53;41.13;73.88;;
18377;Laerm;9315;52.624;13.544;2023-03-14T01:21:35;45.47;40.05;55.72;;
18377;Laerm;9315;52.624;13.544;2023-03-14T01:24:05;44.65;40.56;52.51;;
18377;Laerm;9315;52.624;13.544;2023-03-14T01:26:35;59.86;40.37;74.33;;
18377;Laerm;9315;52.624;13.544;2023-03-14T01:29:02;48.19;38.21;66.76;;
18377;Laerm;9315;52.624;13.544;2023-03-14T01:31:31;46.07;40.67;58.46;;
18377;Laerm;9315;52.624;13.544;2023-03-14T01:33:58;44.51;40.42;55.89;;
18377;Laerm;9315;52.624;13.544;2023-03-14T01:36:25;57.20;40.87;74.85;;
18377;Laerm;9315;52.624;13.544;2023-03-14T01:38:53;56.03;41.82;68.78;;
18377;Laerm;9315;52.624;13.544;2023-03-14T01:41:25;44.56;40.28;57.23;;
18377;Laerm;9315;52.624;13.544;2023-03-14T01:43:52;45.67;41.31;55.25;;
18377;Laerm;9315;52.624;13.544;2023-03-14T01:49:31;51.93;42.16;66.25;;
18377;Laerm;9315;52.624;13.544;2023-03-14T01:55:02;51.65;41.29;66.96;;
18377;Laerm;9315;52.624;13.544;2023-03-14T01:57:41;43.85;39.84;54.39;;
18377;Laerm;9315;52.624;13.544;2023-03-14T02:00:19;46.49;39.89;63.70;;
18377;Laerm;9315;52.624;13.544;2023-03-14T02:03:07;48.24;42.57;64.90;;
18377;Laerm;9315;52.624;13.544;2023-03-14T02:05:40;53.82;42.30;68.17;;
18377;Laerm;9315;52.624;13.544;2023-03-14T02:08:13;64.38;42.59;80.88;;
18377;Laerm;9315;52.624;13.544;2023-03-14T02:10:47;45.80;41.77;56.07;;
18377;Laerm;9315;52.624;13.544;2023-03-14T02:13:17;56.74;42.19;74.16;;
18377;Laerm;9315;52.624;13.544;2023-03-14T02:15:46;57.61;41.01;75.57;;
18377;Laerm;9315;52.624;13.544;2023-03-14T02:18:16;44.53;39.84;57.72;;
18377;Laerm;9315;52.624;13.544;2023-03-14T02:21:36;54.82;40.85;72.29;;
18377;Laerm;9315;52.624;13.544;2023-03-14T02:24:38;59.76;41.78;72.72;;
18377;Laerm;9315;52.624;13.544;2023-03-14T02:27:19;53.21;40.27;70.62;;
18377;Laerm;9315;52.624;13.544;2023-03-14T02:30:18;55.76;41.39;72.14;;
18377;Laerm;9315;52.624;13.544;2023-03-14T02:32:56;59.60;42.32;71.40;;
18377;Laerm;9315;52.624;13.544;2023-03-14T02:35:31;56.22;40.98;73.63;;
18377;Laerm;9315;52.624;13.544;2023-03-14T02:38:22;55.52;40.67;71.13;;
18377;Laerm;9315;52.624;13.544;2023-03-14T02:40:51;63.86;44.19;78.04;;
18377;Laerm;9315;52.624;13.544;2023-03-14T02:43:19;57.03;42.51;73.69;;
18377;Laerm;9315;52.624;13.544;2023-03-14T02:45:49;59.70;40.36;77.99;;
18377;Laerm;9315;52.624;13.544;2023-03-14T02:48:26;45.81;41.32;56.67;;
18377;Laerm;9315;52.624;13.544;2023-03-14T02:50:58;55.76;41.20;74.37;;
18377;Laerm;9315;52.624;13.544;2023-03-14T02:53:33;53.39;40.34;71.95;;
18377;Laerm;9315;52.624;13.544;2023-03-14T02:56:01;58.08;40.50;74.62;;
18377;Laerm;9315;52.624;13.544;2023-03-14T02:58:31;62.96;42.55;81.62;;
18377;Laerm;9315;52.624;13.544;2023-03-14T03:00:58;63.23;42.08;81.63;;
18377;Laerm;9315;52.624;13.544;2023-03-14T03:03:25;55.30;41.87;70.03;;
18377;Laerm;9315;52.624;13.544;2023-03-14T03:05:55;57.05;42.75;73.01;;
18377;Laerm;9315;52.624;13.544;2023-03-14T03:08:26;57.17;41.90;72.67;;
18377;Laerm;9315;52.624;13.544;2023-03-14T03:10:54;53.82;42.38;68.99;;
18377;Laerm;9315;52.624;13.544;2023-03-14T03:13:23;57.85;40.72;74.11;;
18377;Laerm;9315;52.624;13.544;2023-03-14T03:15:50;58.69;41.75;73.64;;
18377;Laerm;9315;52.624;13.544;2023-03-14T03:18:17;63.79;44.36;77.54;;
18377;Laerm;9315;52.624;13.544;2023-03-14T03:20:44;62.23;43.19;75.33;;
18377;Laerm;9315;52.624;13.544;2023-03-14T03:23:12;56.29;42.92;72.26;;
18377;Laerm;9315;52.624;13.544;2023-03-14T03:25:51;63.43;43.30;75.86;;
18377;Laerm;9315;52.624;13.544;2023-03-14T03:28:19;60.33;43.86;75.82;;
18377;Laerm;9315;52.624;13.544;2023-03-14T03:30:46;62.23;43.89;78.51;;
18377;Laerm;9315;52.624;13.544;2023-03-14T03:33:14;62.66;44.37;78.27;;
18377;Laerm;9315;52.624;13.544;2023-03-14T03:35:49;60.35;43.85;74.45;;
18377;Laerm;9315;52.624;13.544;2023-03-14T03:38:17;65.08;45.52;77.23;;
18377;Laerm;9315;52.624;13.544;2023-03-14T03:40:44;64.53;44.81;73.93;;
18377;Laerm;9315;52.624;13.544;2023-03-14T03:43:12;62.24;44.71;74.09;;
18377;Laerm;9315;52.624;13.544;2023-03-14T03:45:39;59.15;44.35;71.31;;
18377;Laerm;9315;52.624;13.544;2023-03-14T03:48:07;63.83;46.84;75.02;;
18377;Laerm;9315;52.624;13.544;2023-03-14T03:50:34;63.47;45.35;80.74;;
18377;Laerm;9315;52.624;13.544;2023-03-14T03:53:01;58.99;43.30;73.15;;
18377;Laerm;9315;52.624;13.544;2023-03-14T03:55:28;62.69;45.10;76.09;;
18377;Laerm;9315;52.624;13.544;2023-03-14T03:57:55;64.45;46.15;76.98;;
18377;Laerm;9315;52.624;13.544;2023-03-14T04:00:23;64.67;45.59;76.34;;
18377;Laerm;9315;52.624;13.544;2023-03-14T04:02:51;61.61;47.12;75.59;;
18377;Laerm;9315;52.624;13.544;2023-03-14T04:05:19;62.68;45.63;72.41;;
18377;Laerm;9315;52.624;13.544;2023-03-14T04:07:46;67.53;49.22;81.51;;
18377;Laerm;9315;52.624;13.544;2023-03-14T04:10:14;66.89;47.89;78.39;;
18377;Laerm;9315;52.624;13.544;2023-03-14T04:12:41;65.03;48.51;76.29;;
18377;Laerm;9315;52.624;13.544;2023-03-14T04:15:09;64.76;48.99;75.26;;
18377;Laerm;9315;52.624;13.544;2023-03-14T04:17:36;67.60;47.89;76.99;;
18377;Laerm;9315;52.624;13.544;2023-03-14T04:20:06;66.02;47.48;76.39;;
18377;Laerm;9315;52.624;13.544;2023-03-14T04:22:38;66.12;47.61;77.95;;
18377;Laerm;9315;52.624;13.544;2023-03-14T04:25:09;66.67;48.70;76.83;;
18377;Laerm;9315;52.624;13.544;2023-03-14T04:27:37;66.06;48.72;76.26;;
18377;Laerm;9315;52.624;13.544;2023-03-14T04:30:05;67.51;49.30;78.22;;
18377;Laerm;9315;52.624;13.544;2023-03-14T04:32:32;66.66;50.60;76.60;;
18377;Laerm;9315;52.624;13.544;2023-03-14T04:34:59;64.96;47.71;79.54;;
18377;Laerm;9315;52.624;13.544;2023-03-14T04:37:26;66.33;50.36;77.00;;
18377;Laerm;9315;52.624;13.544;2023-03-14T04:39:54;69.19;50.91;79.98;;
18377;Laerm;9315;52.624;13.544;2023-03-14T04:42:21;65.68;48.50;74.87;;
18377;Laerm;9315;52.624;13.544;2023-03-14T04:44:48;66.78;49.29;77.05;;
18377;Laerm;9315;52.624;13.544;2023-03-14T04:47:16;65.45;48.93;73.25;;
18377;Laerm;9315;52.624;13.544;2023-03-14T04:49:44;65.68;47.15;76.55;;
18377;Laerm;9315;52.624;13.544;2023-03-14T04:52:11;65.57;48.37;75.56;;
18377;Laerm;9315;52.624;13.544;2023-03-14T04:54:38;68.61;51.65;78.23;;
18377;Laerm;9315;52.624;13.544;2023-03-14T04:57:05;67.46;51.53;75.23;;
18377;Laerm;9315;52.624;13.544;2023-03-14T04:59:32;68.90;48.13;82.40;;
18377;Laerm;9315;52.624;13.544;2023-03-14T05:01:59;67.87;51.52;78.50;;
18377;Laerm;9315;52.624;13.544;2023-03-14T05:04:26;68.13;48.78;81.11;;
18377;Laerm;9315;52.624;13.544;2023-03-14T05:06:53;67.63;49.18;79.10;;
18377;Laerm;9315;52.624;13.544;2023-03-14T05:09:21;68.01;50.12;80.79;;
18377;Laerm;9315;52.624;13.544;2023-03-14T05:11:48;69.92;51.83;78.48;;
18377;Laerm;9315;52.624;13.544;2023-03-14T05:14:15;69.17;51.07;80.00;;
18377;Laerm;9315;52.624;13.544;2023-03-14T05:16:42;67.62;49.73;79.21;;
18377;Laerm;9315;52.624;13.544;2023-03-14T05:19:11;68.28;53.28;77.34;;
18377;Laerm;9315;52.624;13.544;2023-03-14T05:21:38;70.75;50.22;80.15;;
18377;Laerm;9315;52.624;13.544;2023-03-14T05:24:06;69.11;51.29;82.59;;
18377;Laerm;9315;52.624;13.544;2023-03-14T05:26:33;69.09;53.92;79.08;;
18377;Laerm;9315;52.624;13.544;2023-03-14T05:29:00;68.36;50.28;82.71;;
18377;Laerm;9315;52.624;13.544;2023-03-14T05:31:28;68.66;50.88;77.03;;
18377;Laerm;9315;52.624;13.544;2023-03-14T05:33:55;70.63;54.09;77.94;;
18377;Laerm;9315;52.624;13.544;2023-03-14T05:36:22;68.78;51.91;78.38;;
18377;Laerm;9315;52.624;13.544;2023-03-14T05:38:49;69.21;51.05;77.73;;
18377;Laerm;9315;52.624;13.544;2023-03-14T05:41:16;69.05;53.86;77.44;;
18377;Laerm;9315;52.624;13.544;2023-03-14T05:43:44;70.18;53.35;79.27;;
18377;Laerm;9315;52.624;13.544;2023-03-14T05:46:11;69.93;52.91;79.14;;
18377;Laerm;9315;52.624;13.544;2023-03-14T05:48:39;70.13;52.23;81.35;;
18377;Laerm;9315;52.624;13.544;2023-03-14T05:51:06;70.25;53.89;78.98;;
18377;Laerm;9315;52.624;13.544;2023-03-14T05:53:33;70.11;53.90;79.93;;
18377;Laerm;9315;52.624;13.544;2023-03-14T05:56:00;68.40;49.85;77.88;;
18377;Laerm;9315;52.624;13.544;2023-03-14T05:58:28;68.90;51.86;81.68;;
18377;Laerm;9315;52.624;13.544;2023-03-14T06:00:55;70.02;52.27;80.66;;
18377;Laerm;9315;52.624;13.544;2023-03-14T06:03:22;70.82;51.76;90.46;;
18377;Laerm;9315;52.624;13.544;2023-03-14T06:05:51;69.15;50.56;78.80;;
18377;Laerm;9315;52.624;13.544;2023-03-14T06:08:18;71.46;52.54;82.61;;
18377;Laerm;9315;52.624;13.544;2023-03-14T06:10:45;68.32;53.18;76.31;;
18377;Laerm;9315;52.624;13.544;2023-03-14T06:13:13;71.09;55.11;80.55;;
18377;Laerm;9315;52.624;13.544;2023-03-14T06:15:42;71.08;55.53;82.12;;
18377;Laerm;9315;52.624;13.544;2023-03-14T06:18:10;71.47;51.64;86.33;;
18377;Laerm;9315;52.624;13.544;2023-03-14T06:20:38;70.22;52.64;78.76;;
18377;Laerm;9315;52.624;13.544;2023-03-14T06:23:07;69.14;54.34;79.53;;
18377;Laerm;9315;52.624;13.544;2023-03-14T06:25:36;70.56;53.39;79.71;;
18377;Laerm;9315;52.624;13.544;2023-03-14T06:28:03;70.98;54.26;83.52;;
18377;Laerm;9315;52.624;13.544;2023-03-14T06:30:30;69.42;52.18;77.76;;
18377;Laerm;9315;52.624;13.544;2023-03-14T06:32:58;70.58;52.89;79.39;;
18377;Laerm;9315;52.624;13.544;2023-03-14T06:35:28;70.14;54.65;80.91;;
18377;Laerm;9315;52.624;13.544;2023-03-14T06:37:55;70.91;53.97;81.78;;
18377;Laerm;9315;52.624;13.544;2023-03-14T06:40:22;71.20;52.02;85.32;;
18377;Laerm;9315;52.624;13.544;2023-03-14T06:42:50;69.85;53.48;77.60;;
18377;Laerm;9315;52.624;13.544;2023-03-14T06:45:17;70.05;57.68;77.63;;
18377;Laerm;9315;52.624;13.544;2023-03-14T06:47:45;71.32;54.50;81.38;;
18377;Laerm;9315;52.624;13.544;2023-03-14T06:50:15;69.43;51.89;80.28;;
18377;Laerm;9315;52.624;13.544;2023-03-14T06:52:45;70.13;53.51;80.01;;
18377;Laerm;9315;52.624;13.544;2023-03-14T06:55:15;68.43;52.05;76.84;;
18377;Laerm;9315;52.624;13.544;2023-03-14T06:57:43;71.17;57.37;81.16;;
18377;Laerm;9315;52.624;13.544;2023-03-14T07:00:14;70.64;51.32;81.71;;
18377;Laerm;9315;52.624;13.544;2023-03-14T07:02:41;68.54;51.20;78.08;;
18377;Laerm;9315;52.624;13.544;2023-03-14T07:05:09;69.62;51.84;79.61;;
18377;Laerm;9315;52.624;13.544;2023-03-14T07:07:41;68.43;51.06;79.09;;
18377;Laerm;9315;52.624;13.544;2023-03-14T07:10:09;68.02;51.70;78.01;;
18377;Laerm;9315;52.624;13.544;2023-03-14T07:12:36;69.05;50.84;83.02;;
18377;Laerm;9315;52.624;13.544;2023-03-14T07:15:04;68.07;52.00;78.01;;
18377;Laerm;9315;52.624;13.544;2023-03-14T07:17:46;69.74;54.02;80.11;;
18377;Laerm;9315;52.624;13.544;2023-03-14T07:20:15;71.20;50.54;87.84;;
18377;Laerm;9315;52.624;13.544;2023-03-14T07:22:43;69.10;50.18;81.76;;
18377;Laerm;9315;52.624;13.544;2023-03-14T07:25:10;69.88;52.11;81.40;;
18377;Laerm;9315;52.624;13.544;2023-03-14T07:27:39;71.05;51.54;80.64;;
18377;Laerm;9315;52.624;13.544;2023-03-14T07:30:07;68.58;49.88;79.76;;
18377;Laerm;9315;52.624;13.544;2023-03-14T07:32:34;69.54;51.49;78.51;;
18377;Laerm;9315;52.624;13.544;2023-03-14T07:35:01;70.40;51.38;87.50;;
18377;Laerm;9315;52.624;13.544;2023-03-14T07:37:28;70.13;54.11;80.31;;
18377;Laerm;9315;52.624;13.544;2023-03-14T07:39:55;67.09;49.36;75.83;;
18377;Laerm;9315;52.624;13.544;2023-03-14T07:42:22;67.45;51.05;76.75;;
18377;Laerm;9315;52.624;13.544;2023-03-14T07:44:50;68.99;51.93;84.80;;
18377;Laerm;9315;52.624;13.544;2023-03-14T07:47:17;68.03;50.72;83.26;;
18377;Laerm;9315;52.624;13.544;2023-03-14T07:49:45;69.87;50.37;80.71;;
18377;Laerm;9315;52.624;13.544;2023-03-14T07:52:12;69.08;51.75;78.95;;
18377;Laerm;9315;52.624;13.544;2023-03-14T07:54:39;67.94;50.26;81.01;;
18377;Laerm;9315;52.624;13.544;2023-03-14T07:57:06;68.50;51.65;79.29;;
18377;Laerm;9315;52.624;13.544;2023-03-14T07:59:33;68.59;50.40;76.60;;
18377;Laerm;9315;52.624;13.544;2023-03-14T08:02:00;69.92;52.83;78.13;;
18377;Laerm;9315;52.624;13.544;2023-03-14T08:04:28;67.92;51.03;78.36;;
18377;Laerm;9315;52.624;13.544;2023-03-14T08:06:55;68.78;50.06;79.05;;
18377;Laerm;9315;52.624;13.544;2023-03-14T08:09:27;68.26;50.98;77.32;;
18377;Laerm;9315;52.624;13.544;2023-03-14T08:11:54;70.09;51.94;81.88;;
18377;Laerm;9315;52.624;13.544;2023-03-14T08:14:25;67.16;49.24;81.44;;
18377;Laerm;9315;52.624;13.544;2023-03-14T08:16:53;69.16;52.97;79.29;;
18377;Laerm;9315;52.624;13.544;2023-03-14T08:19:21;69.64;53.41;80.71;;
18377;Laerm;9315;52.624;13.544;2023-03-14T08:21:48;70.04;51.37;80.34;;
18377;Laerm;9315;52.624;13.544;2023-03-14T08:24:16;68.19;48.97;78.51;;
18377;Laerm;9315;52.624;13.544;2023-03-14T08:26:45;69.64;50.54;80.64;;
18377;Laerm;9315;52.624;13.544;2023-03-14T08:29:12;69.29;49.36;81.40;;
18377;Laerm;9315;52.624;13.544;2023-03-14T08:31:39;70.00;55.31;79.50;;
18377;Laerm;9315;52.624;13.544;2023-03-14T08:34:07;68.64;51.80;79.07;;
18377;Laerm;9315;52.624;13.544;2023-03-14T08:36:34;69.91;52.12;80.07;;
18377;Laerm;9315;52.624;13.544;2023-03-14T08:39:02;69.76;49.01;83.50;;
18377;Laerm;9315;52.624;13.544;2023-03-14T08:41:33;68.06;49.09;81.54;;
18377;Laerm;9315;52.624;13.544;2023-03-14T08:44:00;70.19;50.39;81.98;;
18377;Laerm;9315;52.624;13.544;2023-03-14T08:46:27;67.92;49.36;77.63;;
18377;Laerm;9315;52.624;13.544;2023-03-14T08:48:54;70.14;50.88;80.66;;
18377;Laerm;9315;52.624;13.544;2023-03-14T08:51:24;68.45;48.94;79.65;;
18377;Laerm;9315;52.624;13.544;2023-03-14T08:53:51;68.94;49.52;77.49;;
18377;Laerm;9315;52.624;13.544;2023-03-14T08:56:18;67.43;48.79;78.56;;
18377;Laerm;9315;52.624;13.544;2023-03-14T08:58:45;68.35;48.65;79.35;;
18377;Laerm;9315;52.624;13.544;2023-03-14T09:01:13;70.10;53.07;78.85;;
18377;Laerm;9315;52.624;13.544;2023-03-14T09:03:42;69.85;51.16;78.43;;
18377;Laerm;9315;52.624;13.544;2023-03-14T09:06:10;69.24;48.70;80.80;;
18377;Laerm;9315;52.624;13.544;2023-03-14T09:08:37;69.28;49.03;78.19;;
18377;Laerm;9315;52.624;13.544;2023-03-14T09:11:12;67.39;48.48;77.55;;
18377;Laerm;9315;52.624;13.544;2023-03-14T09:13:40;70.41;50.78;79.19;;
18377;Laerm;9315;52.624;13.544;2023-03-14T09:16:09;69.82;52.07;78.84;;
18377;Laerm;9315;52.624;13.544;2023-03-14T09:18:36;69.82;49.30;81.35;;
18377;Laerm;9315;52.624;13.544;2023-03-14T09:21:04;70.11;51.56;80.53;;
18377;Laerm;9315;52.624;13.544;2023-03-14T09:23:31;71.24;53.68;86.72;;
18377;Laerm;9315;52.624;13.544;2023-03-14T09:25:59;69.87;50.88;82.85;;
18377;Laerm;9315;52.624;13.544;2023-03-14T09:28:27;67.42;48.88;76.31;;
18377;Laerm;9315;52.624;13.544;2023-03-14T09:30:55;67.56;47.94;76.28;;
18377;Laerm;9315;52.624;13.544;2023-03-14T09:33:22;68.04;50.85;78.93;;
18377;Laerm;9315;52.624;13.544;2023-03-14T09:35:49;68.54;47.47;79.35;;
18377;Laerm;9315;52.624;13.544;2023-03-14T09:38:16;69.21;48.25;80.88;;
18377;Laerm;9315;52.624;13.544;2023-03-14T09:40:44;67.30;49.48;78.06;;
18377;Laerm;9315;52.624;13.544;2023-03-14T09:43:14;69.31;47.09;80.51;;
18377;Laerm;9315;52.624;13.544;2023-03-14T09:45:48;69.17;46.59;76.99;;
18377;Laerm;9315;52.624;13.544;2023-03-14T09:48:24;65.86;48.17;78.77;;
18377;Laerm;9315;52.624;13.544;2023-03-14T09:51:01;68.87;49.42;82.33;;
18377;Laerm;9315;52.624;13.544;2023-03-14T09:53:45;68.94;51.33;77.31;;
18377;Laerm;9315;52.624;13.544;2023-03-14T09:56:25;67.28;47.94;76.72;;
18377;Laerm;9315;52.624;13.544;2023-03-14T09:59:03;67.12;48.29;78.63;;
18377;Laerm;9315;52.624;13.544;2023-03-14T10:01:34;66.88;49.37;81.83;;
18377;Laerm;9315;52.624;13.544;2023-03-14T10:04:18;67.83;47.91;78.74;;
18377;Laerm;9315;52.624;13.544;2023-03-14T10:06:50;69.06;49.43;83.03;;
18377;Laerm;9315;52.624;13.544;2023-03-14T10:09:22;67.48;50.29;77.59;;
18377;Laerm;9315;52.624;13.544;2023-03-14T10:11:58;67.78;50.72;76.08;;
18377;Laerm;9315;52.624;13.544;2023-03-14T10:14:44;69.66;49.10;80.03;;
18377;Laerm;9315;52.624;13.544;2023-03-14T10:17:13;69.19;52.09;78.49;;
18377;Laerm;9315;52.624;13.544;2023-03-14T10:19:59;69.70;49.23;80.44;;
18377;Laerm;9315;52.624;13.544;2023-03-14T10:22:31;68.45;50.62;77.93;;
18377;Laerm;9315;52.624;13.544;2023-03-14T10:25:06;68.97;49.66;79.75;;
18377;Laerm;9315;52.624;13.544;2023-03-14T10:27:50;68.91;51.61;77.67;;
18377;Laerm;9315;52.624;13.544;2023-03-14T10:30:39;68.96;49.64;79.96;;
18377;Laerm;9315;52.624;13.544;2023-03-14T10:33:21;70.34;48.41;86.77;;
18377;Laerm;9315;52.624;13.544;2023-03-14T10:36:00;68.96;50.86;78.83;;
18377;Laerm;9315;52.624;13.544;2023-03-14T10:38:33;68.80;51.18;79.96;;
18377;Laerm;9315;52.624;13.544;2023-03-14T10:41:01;73.73;49.74;95.98;;
18377;Laerm;9315;52.624;13.544;2023-03-14T10:43:35;67.88;49.89;76.42;;
18377;Laerm;9315;52.624;13.544;2023-03-14T10:46:14;67.51;49.40;80.62;;
18377;Laerm;9315;52.624;13.544;2023-03-14T10:48:44;67.62;49.39;80.09;;
18377;Laerm;9315;52.624;13.544;2023-03-14T10:51:29;67.86;48.58;81.91;;
18377;Laerm;9315;52.624;13.544;2023-03-14T10:56:37;67.86;49.29;78.73;;
18377;Laerm;9315;52.624;13.544;2023-03-14T10:59:12;67.69;49.82;76.42;;
18377;Laerm;9315;52.624;13.544;2023-03-14T11:07:59;68.03;50.65;76.68;;
18377;Laerm;9315;52.624;13.544;2023-03-14T11:10:38;68.89;50.64;82.06;;
18377;Laerm;9315;52.624;13.544;2023-03-14T11:13:37;69.00;50.60;82.18;;
18377;Laerm;9315;52.624;13.544;2023-03-14T11:16:53;68.59;46.98;81.22;;
18377;Laerm;9315;52.624;13.544;2023-03-14T11:20:05;68.16;49.94;78.68;;
18377;Laerm;9315;52.624;13.544;2023-03-14T11:26:41;69.83;47.75;79.84;;
18377;Laerm;9315;52.624;13.544;2023-03-14T11:29:41;68.60;51.30;77.72;;
18377;Laerm;9315;52.624;13.544;2023-03-14T11:33:08;67.96;48.25;77.94;;
18377;Laerm;9315;52.624;13.544;2023-03-14T11:36:10;71.00;49.95;90.09;;
18377;Laerm;9315;52.624;13.544;2023-03-14T11:38:49;68.06;50.83;77.38;;
18377;Laerm;9315;52.624;13.544;2023-03-14T11:41:36;67.86;49.96;77.84;;
18377;Laerm;9315;52.624;13.544;2023-03-14T11:44:18;69.05;49.92;78.88;;
18377;Laerm;9315;52.624;13.544;2023-03-14T11:47:19;67.37;48.47;76.15;;
18377;Laerm;9315;52.624;13.544;2023-03-14T11:50:18;70.02;50.75;81.02;;
18377;Laerm;9315;52.624;13.544;2023-03-14T11:53:09;67.97;48.94;80.71;;
18377;Laerm;9315;52.624;13.544;2023-03-14T11:55:43;68.98;51.70;77.14;;
18377;Laerm;9315;52.624;13.544;2023-03-14T11:58:27;68.79;52.31;87.51;;
18377;Laerm;9315;52.624;13.544;2023-03-14T12:00:57;70.38;50.53;89.35;;
18377;Laerm;9315;52.624;13.544;2023-03-14T12:04:00;67.88;49.47;77.16;;
18377;Laerm;9315;52.624;13.544;2023-03-14T12:06:49;69.09;51.33;78.92;;
18377;Laerm;9315;52.624;13.544;2023-03-14T12:09:21;70.20;52.26;80.35;;
18377;Laerm;9315;52.624;13.544;2023-03-14T12:11:57;67.65;49.29;77.09;;
18377;Laerm;9315;52.624;13.544;2023-03-14T12:14:36;70.33;52.39;82.00;;
18377;Laerm;9315;52.624;13.544;2023-03-14T12:17:26;68.31;48.43;80.27;;
18377;Laerm;9315;52.624;13.544;2023-03-14T12:20:23;68.80;53.44;77.13;;
18377;Laerm;9315;52.624;13.544;2023-03-14T12:22:56;69.01;51.26;77.19;;
18377;Laerm;9315;52.624;13.544;2023-03-14T12:25:32;70.27;50.12;81.40;;
18377;Laerm;9315;52.624;13.544;2023-03-14T12:41:34;69.19;50.42;80.16;;
18377;Laerm;9315;52.624;13.544;2023-03-14T12:44:40;68.96;49.73;79.35;;
18377;Laerm;9315;52.624;13.544;2023-03-14T12:49:53;70.04;49.44;79.70;;
18377;Laerm;9315;52.624;13.544;2023-03-14T12:53:13;68.07;48.36;78.60;;
18377;Laerm;9315;52.624;13.544;2023-03-14T12:56:28;68.35;49.37;76.61;;
18377;Laerm;9315;52.624;13.544;2023-03-14T12:59:33;68.24;49.12;78.59;;
18377;Laerm;9315;52.624;13.544;2023-03-14T13:04:36;68.89;49.19;81.76;;
18377;Laerm;9315;52.624;13.544;2023-03-14T13:07:32;69.08;51.90;81.00;;
18377;Laerm;9315;52.624;13.544;2023-03-14T13:10:31;70.35;52.77;82.61;;
18377;Laerm;9315;52.624;13.544;2023-03-14T13:13:27;67.29;55.89;79.43;;
18377;Laerm;9315;52.624;13.544;2023-03-14T13:15:59;68.91;50.57;77.85;;
18377;Laerm;9315;52.624;13.544;2023-03-14T13:18:39;70.16;50.10;80.68;;
18377;Laerm;9315;52.624;13.544;2023-03-14T13:21:21;72.28;50.57;84.71;;
18377;Laerm;9315;52.624;13.544;2023-03-14T13:24:05;69.67;54.52;75.84;;
18377;Laerm;9315;52.624;13.544;2023-03-14T13:26:44;69.83;50.00;78.27;;
18377;Laerm;9315;52.624;13.544;2023-03-14T13:31:53;67.86;50.38;78.78;;
18377;Laerm;9315;52.624;13.544;2023-03-14T13:34:21;68.04;48.64;76.74;;
18377;Laerm;9315;52.624;13.544;2023-03-14T13:36:52;69.97;49.69;82.70;;
18377;Laerm;9315;52.624;13.544;2023-03-14T13:39:24;70.46;53.31;81.51;;
18377;Laerm;9315;52.624;13.544;2023-03-14T13:41:54;69.66;50.45;80.04;;
18377;Laerm;9315;52.624;13.544;2023-03-14T13:44:39;70.75;54.42;78.99;;
18377;Laerm;9315;52.624;13.544;2023-03-14T13:47:22;68.06;50.53;76.54;;
18377;Laerm;9315;52.624;13.544;2023-03-14T13:49:50;70.50;50.08;78.26;;
18377;Laerm;9315;52.624;13.544;2023-03-14T13:52:32;69.08;49.07;85.35;;
18377;Laerm;9315;52.624;13.544;2023-03-14T13:55:05;69.06;50.20;79.10;;
18377;Laerm;9315;52.624;13.544;2023-03-14T13:57:55;69.26;49.48;78.35;;
18377;Laerm;9315;52.624;13.544;2023-03-14T14:00:26;71.93;50.06;84.88;;
18377;Laerm;9315;52.624;13.544;2023-03-14T14:02:57;68.93;51.64;78.01;;
18377;Laerm;9315;52.624;13.544;2023-03-14T14:05:30;70.72;47.87;82.59;;
18377;Laerm;9315;52.624;13.544;2023-03-14T14:07:58;70.82;49.84;85.73;;
18377;Laerm;9315;52.624;13.544;2023-03-14T14:10:29;69.96;49.98;77.92;;
18377;Laerm;9315;52.624;13.544;2023-03-14T14:13:03;68.83;49.17;78.55;;
18377;Laerm;9315;52.624;13.544;2023-03-14T14:15:41;70.18;50.54;77.77;;
18377;Laerm;9315;52.624;13.544;2023-03-14T14:18:16;75.85;48.58;99.20;;
18377;Laerm;9315;52.624;13.544;2023-03-14T14:20:46;70.95;51.63;85.20;;
18377;Laerm;9315;52.624;13.544;2023-03-14T14:23:27;68.79;53.05;75.72;;
18377;Laerm;9315;52.624;13.544;2023-03-14T14:25:59;68.27;48.63;78.43;;
18377;Laerm;9315;52.624;13.544;2023-03-14T14:28:36;69.98;49.30;80.03;;
18377;Laerm;9315;52.624;13.544;2023-03-14T14:34:02;69.66;52.31;77.10;;
18377;Laerm;9315;52.624;13.544;2023-03-14T14:36:39;70.60;52.25;78.20;;
18377;Laerm;9315;52.624;13.544;2023-03-14T14:39:25;69.40;51.45;82.04;;
18377;Laerm;9315;52.624;13.544;2023-03-14T14:41:53;69.93;48.65;78.26;;
18377;Laerm;9315;52.624;13.544;2023-03-14T14:44:32;68.53;49.20;77.80;;
18377;Laerm;9315;52.624;13.544;2023-03-14T14:47:03;70.18;50.48;79.01;;
18377;Laerm;9315;52.624;13.544;2023-03-14T14:49:33;70.33;55.12;77.30;;
18377;Laerm;9315;52.624;13.544;2023-03-14T14:52:40;69.35;51.42;79.04;;
18377;Laerm;9315;52.624;13.544;2023-03-14T14:55:18;68.88;49.27;77.26;;
18377;Laerm;9315;52.624;13.544;2023-03-14T14:57:53;72.19;51.64;82.25;;
18377;Laerm;9315;52.624;13.544;2023-03-14T15:00:26;76.69;53.60;86.83;;